Latest Weather Observations for Coldstream

IDV60901

Issued at 9:41 pm EST Wednesday 29 July 2015 (issued every 10 minutes, with the page automatically refreshed every 10 minutes)

About weather observations | Map of Melbourne area stations | Latest observations for Melbourne area | Other Formats
Station Details ID: 086383 Name: COLDSTREAM Lat: -37.72 Lon: 145.41 Height: 83.0 m
Data from the previous 72 hours. | See also: Recent months at Coldstream
Date/Time
EST
Tmp

°C
App
Tmp
°C
Dew
Point
°C
Rel
Hum
%
Delta-T

°C
Wind Press
QNH
hPa
Press
MSL
hPa
Rain
since
9 am
mm
Dir
 
Spd
km/h
Gust
km/h
Spd
kts
Gust
kts
29/09:30pm 8.1 5.5 4.3 77 1.7 NNW 7 9 4 5 1027.8 1027.9 0.0
29/09:00pm 8.4 5.5 4.4 76 1.7 N 9 13 5 7 1028.2 1028.4 0.0
29/08:30pm 8.6 5.3 4.8 77 1.7 N 11 15 6 8 1028.5 1028.7 0.0
29/08:00pm 8.4 5.8 4.4 76 1.7 N 7 11 4 6 1028.7 1028.9 0.0
29/07:30pm 8.8 5.5 4.4 74 1.9 N 11 13 6 7 1028.7 1028.9 0.0
29/07:00pm 8.8 5.5 4.4 74 1.9 N 11 15 6 8 1028.8 1029.0 0.0
29/06:30pm 8.9 5.2 4.3 73 2.0 NNE 13 17 7 9 1028.5 1028.7 0.0
29/06:00pm 8.8 5.4 4.0 72 2.1 N 11 15 6 8 1028.8 1029.0 0.0
29/05:30pm 8.8 5.3 3.4 69 2.3 N 11 17 6 9 1028.6 1028.8 0.0
29/05:00pm 9.8 5.1 3.1 63 2.9 N 17 24 9 13 1028.6 1028.8 0.0
29/04:30pm 10.3 6.1 3.6 63 2.9 NNW 15 24 8 13 1028.8 1029.0 0.0
29/04:00pm 11.2 6.6 3.5 59 3.4 NNW 17 26 9 14 1028.9 1029.1 0.0
29/03:30pm 11.6 6.7 3.9 59 3.4 N 19 28 10 15 1029.0 1029.2 0.0
29/03:00pm 11.7 6.5 3.7 58 3.5 NNW 20 32 11 17 1029.4 1029.6 0.0
29/02:30pm 11.9 7.4 4.2 59 3.5 N 17 28 9 15 1029.6 1029.8 0.0
29/02:00pm 12.5 7.4 4.0 56 3.8 NNW 20 33 11 18 1029.9 1030.1 0.0
29/01:30pm 12.3 7.5 4.8 60 3.4 N 19 33 10 18 1029.8 1030.0 0.0
29/01:00pm 12.6 7.7 4.1 56 3.8 N 19 30 10 16 1030.6 1030.8 0.0
29/12:30pm 12.3 7.9 5.0 61 3.4 N 17 28 9 15 1031.4 1031.6 0.0
29/12:00pm 12.0 7.6 4.7 61 3.3 N 17 26 9 14 1032.1 1032.3 0.0
29/11:30am 12.2 7.4 5.6 64 3.1 N 20 32 11 17 1032.3 1032.5 0.0
29/11:00am 12.1 7.8 6.8 70 2.5 N 19 28 10 15 1032.5 1032.7 0.0
29/10:30am 11.7 7.7 6.8 72 2.3 N 17 28 9 15 1032.9 1033.1 0.0
29/10:00am 10.7 8.6 6.5 75 2.0 NNE 7 13 4 7 1033.1 1033.3 0.0
29/09:30am 9.6 7.9 6.0 78 1.7 NNE 4 9 2 5 1033.4 1033.6 0.0
29/09:00am 7.7 5.6 6.0 89 0.8 E 6 9 3 5 1033.6 1033.8 0.0
29/08:30am 6.4 5.5 6.1 98 0.1 CALM 0 0 0 0 1033.5 1033.7 0.0
29/08:00am 4.8 3.1 4.1 95 0.3 E 2 6 1 3 1033.2 1033.4 0.0
29/07:30am 6.0 4.2 5.3 95 0.3 ESE 4 7 2 4 1033.0 1033.2 0.0
29/07:00am 6.7 5.1 6.3 97 0.2 E 4 11 2 6 1033.1 1033.3 0.0
29/06:30am 6.5 5.2 5.9 96 0.3 SE 2 7 1 4 1033.1 1033.3 0.0
29/06:00am 6.8 4.8 6.1 95 0.3 ESE 6 7 3 4 1032.8 1033.0 0.0
29/05:30am 7.1 6.3 6.7 97 0.2 CALM 0 0 0 0 1032.6 1032.8 0.0
29/05:00am 6.9 6.1 6.5 97 0.2 CALM 0 0 0 0 1032.5 1032.7 0.0
29/04:30am 7.0 6.2 6.7 98 0.1 CALM 0 0 0 0 1032.9 1033.1 0.0
29/04:00am 6.9 6.1 6.6 98 0.1 CALM 0 0 0 0 1032.9 1033.1 0.0
29/03:30am 6.8 6.0 6.5 98 0.1 CALM 0 4 0 2 1033.1 1033.3 0.0
29/03:00am 6.8 6.0 6.4 97 0.2 CALM 0 6 0 3 1033.3 1033.5 0.0
29/02:30am 6.7 5.9 6.3 97 0.2 CALM 0 0 0 0 1033.5 1033.7 0.0
29/02:00am 6.9 6.1 6.5 97 0.2 CALM 0 0 0 0 1033.2 1033.4 0.0
29/01:30am 6.8 5.5 6.2 96 0.3 E 2 7 1 4 1033.0 1033.2 0.0
29/01:00am 7.1 6.3 6.7 97 0.2 CALM 0 6 0 3 1033.6 1033.8 0.0
29/12:30am 7.3 6.6 6.9 97 0.2 CALM 0 0 0 0 1034.1 1034.3 0.0
29/12:00am 7.3 6.2 6.9 97 0.2 E 2 6 1 3 1034.0 1034.2 0.0
 
Date/Time
EST
Tmp

°C
App
Tmp
°C
Dew
Point
°C
Rel
Hum
%
Delta-T

°C
Wind Press
QNH
hPa
Press
MSL
hPa
Rain
since
9 am
mm
Dir
 
Spd
km/h
Gust
km/h
Spd
kts
Gust
kts
28/11:30pm 7.3 6.2 7.0 98 0.1 ESE 2 7 1 4 1034.0 1034.2 0.0
28/11:00pm 6.9 5.7 6.6 98 0.1 E 2 7 1 4 1034.0 1034.2 0.0
28/10:30pm 6.8 5.3 6.7 99 0.0 SSE 4 9 2 5 1034.3 1034.5 0.0
28/10:00pm 6.6 4.5 6.5 99 0.0 SSE 7 11 4 6 1034.3 1034.5 0.0
28/09:30pm 5.8 4.8 5.7 99 0.0 CALM 0 6 0 3 1034.2 1034.4 0.0
28/09:00pm 4.6 3.3 4.3 98 0.1 CALM 0 0 0 0 1034.3 1034.5 0.0
28/08:30pm 4.3 2.2 3.9 97 0.2 S 4 9 2 5 1034.3 1034.5 0.0
28/08:00pm 4.1 2.6 3.2 94 0.4 CALM 0 0 0 0 1034.2 1034.4 0.0
28/07:30pm 5.8 4.7 4.9 94 0.4 CALM 0 0 0 0 1034.2 1034.4 0.0
28/07:00pm 6.2 4.7 5.0 92 0.5 SSW 2 6 1 3 1034.1 1034.3 0.0
28/06:30pm 7.3 6.0 6.1 92 0.5 ESE 2 6 1 3 1033.9 1034.1 0.0
28/06:00pm 7.5 6.2 5.8 89 0.8 SSE 2 7 1 4 1033.7 1033.9 0.0
28/05:30pm 8.6 7.7 5.9 83 1.2 CALM 0 0 0 0 1033.5 1033.7 0.0
28/05:00pm 11.5 9.3 6.0 69 2.6 SW 7 13 4 7 1033.3 1033.5 0.0
28/04:30pm 12.6 10.4 6.4 66 3.0 SSW 7 13 4 7 1033.2 1033.4 0.0
28/04:00pm 13.8 11.4 5.2 56 4.0 W 7 13 4 7 1033.2 1033.4 0.0
28/03:30pm 13.3 10.3 5.9 61 3.5 W 11 15 6 8 1033.1 1033.3 0.0
28/03:00pm 12.8 11.0 7.0 68 2.8 N 6 9 3 5 1033.1 1033.3 0.0
28/02:30pm 12.6 10.6 6.4 66 3.0 WNW 6 9 3 5 1033.1 1033.3 0.0
28/02:00pm 12.6 10.7 7.7 72 2.4 E 7 9 4 5 1033.4 1033.6 0.0
28/01:30pm 13.7 11.8 7.7 67 3.0 N 7 13 4 7 1033.5 1033.7 0.0
28/01:00pm 12.5 11.0 9.0 79 1.7 NE 7 11 4 6 1033.9 1034.1 0.0
28/12:30pm 11.0 8.8 7.9 81 1.5 NE 9 15 5 8 1034.2 1034.4 0.0
28/12:00pm 11.8 10.8 8.8 82 1.5 NW 4 9 2 5 1034.7 1034.9 0.0
28/11:30am 12.0 10.6 9.0 82 1.5 NNW 6 13 3 7 1035.1 1035.3 0.0
28/11:00am 10.4 9.3 8.5 88 0.9 N 4 7 2 4 1035.6 1035.8 0.0
28/10:30am 9.4 8.2 8.2 92 0.6 N 4 13 2 7 1035.7 1035.9 0.0
28/10:00am 8.9 8.2 8.5 97 0.2 NNE 2 9 1 5 1035.6 1035.8 0.0
28/09:30am 8.5 8.1 8.2 98 0.1 CALM 0 0 0 0 1035.5 1035.7 0.0
28/09:00am 8.4 8.0 8.3 99 0.0 CALM 0 0 0 0 1035.2 1035.4 3.0
28/08:30am 8.1 7.6 8.0 99 0.0 CALM 0 0 0 0 1034.8 1035.0 2.6
28/08:00am 8.0 7.5 7.9 99 0.0 CALM 0 0 0 0 1034.6 1034.8 2.6
28/07:30am 7.9 7.4 7.8 99 0.0 CALM 0 0 0 0 1034.2 1034.4 2.6
28/07:00am 7.8 7.3 7.7 99 0.0 CALM 0 0 0 0 1033.9 1034.1 2.6
28/06:30am 7.8 7.3 7.7 99 0.0 CALM 0 0 0 0 1033.4 1033.6 2.4
28/06:00am 7.8 7.2 7.5 98 0.1 CALM 0 0 0 0 1033.2 1033.4 2.2
28/05:30am 7.7 7.1 7.4 98 0.1 CALM 0 0 0 0 1032.8 1033.0 2.0
28/05:00am 7.7 7.1 7.3 97 0.2 CALM 0 0 0 0 1032.5 1032.7 1.8
28/04:30am 7.7 6.7 7.3 97 0.2 NNE 2 6 1 3 1032.3 1032.5 1.2
28/04:00am 7.7 7.0 7.1 96 0.3 CALM 0 0 0 0 1032.3 1032.5 1.0
28/03:30am 7.7 7.0 6.8 94 0.4 CALM 0 0 0 0 1032.2 1032.4 0.6
28/03:00am 7.8 7.0 6.7 93 0.5 CALM 0 0 0 0 1032.0 1032.2 0.4
28/02:30am 7.9 7.1 6.7 92 0.6 CALM 0 0 0 0 1032.0 1032.2 0.4
28/02:00am 8.0 7.2 6.3 89 0.8 CALM 0 0 0 0 1031.8 1032.0 0.4
28/01:30am 8.1 7.2 5.9 86 1.0 CALM 0 0 0 0 1031.6 1031.8 0.2
28/01:00am 7.9 6.7 6.4 90 0.7 NE 2 6 1 3 1031.4 1031.6 0.2
28/12:30am 7.9 7.0 6.0 88 0.9 CALM 0 0 0 0 1031.5 1031.7 0.2
28/12:00am 7.9 7.0 6.0 88 0.9 CALM 0 0 0 0 1031.6 1031.8 0.2
 
Date/Time
EST
Tmp

°C
App
Tmp
°C
Dew
Point
°C
Rel
Hum
%
Delta-T

°C
Wind Press
QNH
hPa
Press
MSL
hPa
Rain
since
9 am
mm
Dir
 
Spd
km/h
Gust
km/h
Spd
kts
Gust
kts
27/11:30pm 8.1 6.7 5.7 85 1.1 NNE 2 7 1 4 1031.5 1031.7 0.2
27/11:00pm 8.2 5.9 5.7 84 1.1 NNE 7 9 4 5 1031.6 1031.8 0.2
27/10:30pm 8.2 6.1 5.8 85 1.1 NNW 6 7 3 4 1031.6 1031.8 0.2
27/10:00pm 8.1 7.1 5.6 84 1.1 CALM 0 0 0 0 1031.6 1031.8 0.2
27/09:30pm 7.2 6.3 6.0 92 0.5 CALM 0 0 0 0 1031.5 1031.7 0.2
27/09:00pm 6.9 5.9 5.7 92 0.5 CALM 0 0 0 0 1031.3 1031.5 0.2
27/08:30pm 6.6 5.5 5.2 91 0.6 CALM 0 0 0 0 1031.2 1031.4 0.2
27/08:00pm 6.2 4.8 3.5 83 1.1 CALM 0 0 0 0 1031.2 1031.4 0.2
27/07:30pm 8.5 6.3 5.3 80 1.4 WNW 6 11 3 6 1030.9 1031.1 0.2
27/07:00pm 9.0 5.7 6.3 83 1.2 WSW 13 19 7 10 1030.6 1030.8 0.2
27/06:30pm 9.6 6.7 4.8 72 2.2 WNW 9 17 5 9 1030.3 1030.5 0.0
27/06:00pm 9.6 6.5 5.4 75 1.9 WSW 11 15 6 8 1030.0 1030.2 0.0
27/05:30pm 9.7 6.8 4.7 71 2.2 WSW 9 15 5 8 1029.5 1029.7 0.0
27/05:00pm 10.4 6.8 5.0 69 2.4 WSW 13 19 7 10 1029.3 1029.5 0.0
27/04:30pm 10.6 6.2 4.9 68 2.6 WSW 17 26 9 14 1028.9 1029.1 0.0
27/04:00pm 11.3 6.4 4.3 62 3.1 WSW 19 32 10 17 1028.6 1028.8 0.0
27/03:30pm 12.6 7.9 5.3 61 3.4 WSW 19 24 10 13 1028.4 1028.6 0.0
27/03:00pm 11.3 7.8 5.4 67 2.7 WSW 13 19 7 10 1028.3 1028.5 0.0
27/02:30pm 12.5 8.4 6.1 65 3.0 WSW 17 22 9 12 1028.0 1028.2 0.0
27/02:00pm 11.5 6.6 4.9 64 3.0 WSW 20 30 11 16 1027.8 1027.9 0.0
27/01:30pm 11.3 6.7 5.8 69 2.6 W 19 30 10 16 1027.8 1027.9 0.0
27/01:00pm 11.1 6.2 5.2 67 2.7 W 20 28 11 15 1028.1 1028.3 0.0
27/12:30pm 10.2 6.1 4.6 68 2.5 WSW 15 20 8 11 1028.4 1028.6 0.0
27/12:00pm 10.3 5.4 5.1 70 2.3 W 20 26 11 14 1028.5 1028.7 0.0
27/11:30am 10.5 5.9 5.5 71 2.3 W 19 24 10 13 1028.8 1029.0 0.0
27/11:00am 9.2 5.0 5.6 78 1.6 WSW 17 22 9 12 1028.9 1029.1 0.0
27/10:30am 8.4 4.5 5.3 81 1.4 WSW 15 22 8 12 1028.9 1029.1 0.0
27/10:00am 7.2 5.5 4.2 81 1.3 WSW 2 7 1 4 1028.7 1028.9 0.0
27/09:30am 6.5 5.1 3.7 82 1.2 CALM 0 0 0 0 1028.3 1028.5 0.0
27/09:00am 5.9 4.5 3.7 86 0.9 CALM 0 6 0 3 1028.1 1028.3 1.4
27/08:30am 4.9 3.2 4.2 95 0.3 NW 2 6 1 3 1027.6 1027.7 1.4
27/08:00am 3.8 2.4 3.4 97 0.2 CALM 0 0 0 0 1027.3 1027.4 1.4
27/07:30am 2.7 1.1 2.3 97 0.2 CALM 0 6 0 3 1026.8 1026.9 1.2
27/07:00am 2.3 0.6 1.7 96 0.2 CALM 0 0 0 0 1026.3 1026.5 1.2
27/06:30am 2.0 0.2 1.3 95 0.3 CALM 0 0 0 0 1025.9 1026.1 1.2
27/06:00am 2.3 0.5 1.4 94 0.3 CALM 0 0 0 0 1025.5 1025.7 1.2
27/05:30am 2.8 1.1 2.1 95 0.3 CALM 0 7 0 4 1025.2 1025.4 1.2
27/05:00am 1.8 0.0 0.9 94 0.3 CALM 0 0 0 0 1025.1 1025.3 1.2
27/04:30am 2.0 0.2 1.0 93 0.4 CALM 0 0 0 0 1024.6 1024.8 1.2
27/04:00am 2.4 0.3 1.4 93 0.4 NNW 2 6 1 3 1024.3 1024.5 1.2
27/03:30am 1.6 -0.8 0.0 89 0.6 WNW 2 6 1 3 1024.1 1024.3 1.2
27/03:00am 3.3 0.2 1.3 87 0.8 WNW 7 9 4 5 1023.9 1024.1 1.2
27/02:30am 4.6 2.5 1.8 82 1.1 W 2 7 1 4 1023.8 1024.0 1.2
27/02:00am 5.1 2.3 2.1 81 1.2 WNW 6 7 3 4 1023.5 1023.7 1.2
27/01:30am 5.5 2.6 2.5 81 1.2 NNW 7 13 4 7 1023.3 1023.5 1.2
27/01:00am 5.8 2.9 2.4 79 1.4 NNW 7 11 4 6 1023.0 1023.2 1.2
27/12:30am 6.3 3.0 2.4 76 1.6 WNW 9 19 5 10 1022.7 1022.9 1.2
27/12:00am 6.5 2.4 2.2 74 1.8 NW 13 20 7 11 1022.6 1022.8 1.2
 
Date/Time
EST
Tmp

°C
App
Tmp
°C
Dew
Point
°C
Rel
Hum
%
Delta-T

°C
Wind Press
QNH
hPa
Press
MSL
hPa
Rain
since
9 am
mm
Dir
 
Spd
km/h
Gust
km/h
Spd
kts
Gust
kts
26/11:30pm 6.5 2.7 2.0 73 1.8 NW 11 19 6 10 1022.4 1022.6 1.2
26/11:00pm 6.5 2.3 1.8 72 1.9 NW 13 19 7 10 1022.2 1022.4 1.2
26/10:30pm 6.5 2.3 1.4 70 2.1 NW 13 22 7 12 1021.8 1022.0 1.2
26/10:00pm 6.6 2.4 1.5 70 2.0 NW 13 20 7 11 1021.6 1021.8 1.2

Latest Capital City Observations: Canberra | Sydney | Melbourne | Brisbane | Adelaide | Perth | Hobart | Darwin

Other Formats:

Comma delimited format used in spreadsheet applications
http://www.bom.gov.au/fwo/IDV60901/IDV60901.94864.axf

JavaScript Object Notation format (JSON) in row-major order
http://www.bom.gov.au/fwo/IDV60901/IDV60901.94864.json